ID Time Temp Humidity Light PM2.5 PM10 Voltage Extra Firmware Position Fcnt TTN version Gateways Distance RSSI LSNR Radiosettings
2026-05-07 16:27:22 19°C 51% 4.06V / 3.26V v7 51.6072 / 5.22635 2515 ttn.v3 0.005km -69 11.75 868.1MHz, SF9BW125, 4/5CR
2026-05-07 15:30:41 18.875°C 53.5625% 3.94V / 3.26V v7 51.6072 / 5.22635 2514 ttn.v3 0.005km -68 7.75 868.5MHz, SF12BW125, 4/5CR
2026-05-07 14:32:22 18.375°C 52.875% 4.04V / 3.26V v7 51.6072 / 5.2262 2513 ttn.v3 0.008km -65 9.75 867.5MHz, SF9BW125, 4/5CR
2026-05-07 13:34:48 21.6875°C 46.6875% 4.04V / 3.27V v7 51.6072 / 5.2262 2512 ttn.v3 0.008km -63 12.5 867.3MHz, SF9BW125, 4/5CR
2026-05-07 12:37:12 21°C 49.6875% 4.04V / 3.27V v7 51.6072 / 5.2262 2511 ttn.v3 0.008km -66 12.25 868.3MHz, SF9BW125, 4/5CR
2026-05-07 11:40:11 21.75°C 50.5% 3.94V / 3.27V v7 51.6072 / 5.2262 2510 ttn.v3 0.008km -80 7.75 867.1MHz, SF12BW125, 4/5CR
2026-05-07 10:42:02 18.125°C 64% 4.04V / 3.26V v7 51.6072 / 5.22656 2509 ttn.v3 0.018km -69 13 867.9MHz, SF9BW125, 4/5CR
2026-05-07 09:44:32 14.375°C 51% 4.04V / 3.25V v7 51.6072 / 5.22656 2508 ttn.v3 0.018km -71 13.25 868.1MHz, SF9BW125, 4/5CR
2026-05-07 08:47:05 9.4375°C 50.4375% 3.92V / 3.25V v7 51.6072 / 5.22656 2507 ttn.v3 0.018km -69 12.75 867.7MHz, SF9BW125, 4/5CR
2026-05-07 06:52:43 8.5°C 50.3125% 4.04V / 3.24V v7 51.6072 / 5.22644 2506 ttn.v3 0.01km -69 9 868.5MHz, SF9BW125, 4/5CR
2026-05-07 05:55:22 8.25°C 50.3125% 4.06V / 3.24V v7 51.6072 / 5.22644 2505 ttn.v3 0.01km -69 13 868.3MHz, SF9BW125, 4/5CR
2026-05-07 04:58:01 8.1875°C 50.3125% 4.06V / 3.24V v7 51.6072 / 5.22644 2504 ttn.v3 0.01km -67 11.25 867.3MHz, SF9BW125, 4/5CR
2026-05-07 04:02:14 8.125°C 50.3125% 3.92V / 3.25V v7 51.6072 / 5.22644 2503 ttn.v3 0.01km -81 9.5 868.1MHz, SF12BW125, 4/5CR
2026-05-07 03:03:31 8.9375°C 50.375% 4.06V / 3.25V v7 51.6072 / 5.22626 2502 ttn.v3 0.005km -69 8.5 868.5MHz, SF9BW125, 4/5CR
2026-05-07 02:06:09 9.75°C 50.5% 4.06V / 3.25V v7 51.6072 / 5.22626 2501 ttn.v3 0.005km -68 12 867.1MHz, SF9BW125, 4/5CR
2026-05-07 01:08:47 10.3125°C 50.5625% 4.06V / 3.25V v7 51.6072 / 5.22626 2500 ttn.v3 0.005km -71 14 867.9MHz, SF9BW125, 4/5CR
2026-05-07 00:12:11 10.375°C 50.8125% 3.92V / 3.25V v7 51.6072 / 5.22626 2499 ttn.v3 0.005km -71 9.75 868.3MHz, SF12BW125, 4/5CR
2026-05-06 23:14:07 10.5625°C 88.4375% 4.04V / 3.25V v7 51.6073 / 5.22614 2498 ttn.v3 0.013km -67 12 867.7MHz, SF9BW125, 4/5CR
2026-05-06 22:16:46 10.75°C 12.0625% 4.04V / 3.25V v7 51.6073 / 5.22614 2497 ttn.v3 0.013km -66 8.25 867.5MHz, SF9BW125, 4/5CR
2026-05-06 21:19:20 11.1875°C 102.375% 4.06V / 3.25V v7 51.6073 / 5.22614 2496 ttn.v3 0.013km -71 13.25 868.1MHz, SF9BW125, 4/5CR
2026-05-06 20:23:07 11.5625°C 108.812% 3.92V / 3.25V v7 51.6073 / 5.22614 2495 ttn.v3 0.013km -66 8 867.3MHz, SF12BW125, 4/5CR
9.772km -121 -21.2 867.3MHz, SF12BW125, 4/5CR
2026-05-06 19:24:41 11.9375°C 110.438% 4.06V / 3.25V v7 51.6074 / 5.22678 2494 ttn.v3 0.037km -69 9.25 868.5MHz, SF9BW125, 4/5CR
2026-05-06 18:27:16 11.875°C 76.375% 4.06V / 3.25V v7 51.6074 / 5.22678 2493 ttn.v3 0.037km -69 12.5 867.1MHz, SF9BW125, 4/5CR
2026-05-06 17:29:51 12.0625°C 113.312% 4.04V / 3.25V v7 51.6074 / 5.22678 2492 ttn.v3 0.037km -71 13 867.9MHz, SF9BW125, 4/5CR
2026-05-06 16:35:40 12.6875°C 83.125% 3.92V / 3.25V v7 51.6074 / 5.22678 2491 ttn.v3 0.037km -64 10.75 868.3MHz, SF12BW125, 4/5CR
2026-05-06 15:35:24 13.6875°C 68.25% 4.06V / 3.25V v7 51.6073 / 5.22604 2490 ttn.v3 0.02km -71 13 868.1MHz, SF9BW125, 4/5CR
2026-05-06 14:37:58 13.5°C 74.25% 4.06V / 3.25V v7 51.6073 / 5.22604 2489 ttn.v3 0.02km -69 12 867.7MHz, SF9BW125, 4/5CR
2026-05-06 13:40:31 13.625°C 72.625% 4.04V / 3.25V v7 51.6073 / 5.22604 2488 ttn.v3 0.02km -71 9 868.5MHz, SF9BW125, 4/5CR
2026-05-06 12:43:41 15.3125°C 67% 3.96V / 3.26V v7 51.6073 / 5.22604 2487 ttn.v3 0.02km -71 7 867.5MHz, SF12BW125, 4/5CR
2026-05-06 11:45:38 16°C 51.125% 4.02V / 3.26V v7 51.6071 / 5.22632 2486 ttn.v3 0.015km -67 12.5 868.3MHz, SF9BW125, 4/5CR
2026-05-06 10:48:11 12.625°C 50.8125% 4.06V / 3.25V v7 51.6071 / 5.22632 2485 ttn.v3 0.015km -67 12.25 868.1MHz, SF9BW125, 4/5CR
2026-05-06 09:50:47 10.875°C 50.625% 4.06V / 3.25V v7 51.6071 / 5.22632 2484 ttn.v3 0.015km -73 11.75 867.3MHz, SF9BW125, 4/5CR
2026-05-06 08:54:11 10°C 50.5% 3.94V / 3.25V v7 51.6071 / 5.22632 2483 ttn.v3 0.015km -73 7.75 868.5MHz, SF12BW125, 4/5CR
2026-05-06 07:56:08 9.3125°C 50.4375% 4.04V / 3.25V v7 51.6073 / 5.22638 2482 ttn.v3 0.009km -65 12.25 868.3MHz, SF9BW125, 4/5CR
2026-05-06 06:58:46 8.8125°C 50.375% 4.04V / 3.24V v7 51.6073 / 5.22638 2481 ttn.v3 0.009km -69 12.75 867.1MHz, SF9BW125, 4/5CR
2026-05-06 06:01:25 8.9375°C 50.375% 4.04V / 3.25V v7 51.6073 / 5.22638 2480 ttn.v3 0.009km -68 12.25 868.1MHz, SF9BW125, 4/5CR
2026-05-06 05:08:45 8.9375°C 50.375% 3.88V / 3.25V v7 51.6073 / 5.22638 2479 ttn.v3 0.009km -71 7.75 868.5MHz, SF12BW125, 4/5CR
2026-05-06 04:07:17 9.125°C 50.4375% 4.06V / 3.25V v7 51.6071 / 5.22638 2478 ttn.v3 0.016km -69 12.75 867.9MHz, SF9BW125, 4/5CR
2026-05-06 03:09:55 9.8125°C 50.5% 4.08V / 3.25V v7 51.6071 / 5.22638 2477 ttn.v3 0.016km -67 13 867.7MHz, SF9BW125, 4/5CR
2026-05-06 02:12:32 10.25°C 50.5% 4.06V / 3.25V v7 51.6071 / 5.22638 2476 ttn.v3 0.016km -71 13 868.3MHz, SF9BW125, 4/5CR
2026-05-06 01:15:41 10.4375°C 50.5625% 3.96V / 3.25V v7 51.6071 / 5.22638 2475 ttn.v3 0.016km -73 8.5 867.5MHz, SF12BW125, 4/5CR
2026-05-06 00:17:50 10.6875°C 50.5625% 4.08V / 3.25V v7 51.6071 / 5.22653 2474 ttn.v3 0.022km -71 13.75 868.1MHz, SF9BW125, 4/5CR
2026-05-05 23:20:27 11.0625°C 50.625% 4.06V / 3.25V v7 51.6071 / 5.22653 2473 ttn.v3 0.022km -67 13.25 867.3MHz, SF9BW125, 4/5CR
2026-05-05 22:23:03 11.3125°C 50.625% 4.04V / 3.25V v7 51.6071 / 5.22653 2472 ttn.v3 0.022km -68 12.25 867.1MHz, SF9BW125, 4/5CR
2026-05-05 21:26:11 11.875°C 50.6875% 3.96V / 3.25V v7 51.6071 / 5.22653 2471 ttn.v3 0.022km -67 8.25 868.5MHz, SF12BW125, 4/5CR
2026-05-05 20:28:18 12.4375°C 50.75% 4.08V / 3.25V v7 51.6074 / 5.22617 2470 ttn.v3 0.02km -69 12.5 868.3MHz, SF9BW125, 4/5CR
2026-05-05 19:30:52 13.1875°C 50.875% 4.06V / 3.25V v7 51.6074 / 5.22617 2469 ttn.v3 0.02km -69 12.5 867.9MHz, SF9BW125, 4/5CR
2026-05-05 18:33:26 13.4375°C 50.875% 4.06V / 3.25V v7 51.6074 / 5.22617 2468 ttn.v3 0.02km -67 12 868.1MHz, SF9BW125, 4/5CR
2026-05-05 17:37:06 12.25°C 50.75% 3.94V / 3.25V v7 51.6074 / 5.22617 2467 ttn.v3 0.02km -75 9.5 867.7MHz, SF12BW125, 4/5CR
2026-05-05 16:38:44 12.5°C 50.75% 4.06V / 3.25V v7 51.6071 / 5.22638 2466 ttn.v3 0.016km -67 8.5 868.5MHz, SF9BW125, 4/5CR
2026-05-05 15:41:18 11.9375°C 50.6875% 4.06V / 3.25V v7 51.6071 / 5.22638 2465 ttn.v3 0.016km -69 12.75 868.3MHz, SF9BW125, 4/5CR
2026-05-05 14:43:54 12.125°C 50.75% 4.06V / 3.25V v7 51.6071 / 5.22638 2464 ttn.v3 0.016km -63 9.25 867.5MHz, SF9BW125, 4/5CR
2026-05-05 13:48:12 10.9375°C 50.625% 3.94V / 3.25V v7 51.6071 / 5.22638 2463 ttn.v3 0.016km -67 7.5 868.1MHz, SF12BW125, 4/5CR
2026-05-05 12:49:19 10.4375°C 50.5625% 4.06V / 3.25V v7 51.6073 / 5.22638 2462 ttn.v3 0.009km -68 9 868.5MHz, SF9BW125, 4/5CR
2026-05-05 11:51:56 10.0625°C 50.5% 4.04V / 3.25V v7 51.6073 / 5.22638 2461 ttn.v3 0.009km -67 11.75 867.3MHz, SF9BW125, 4/5CR
2026-05-05 10:54:33 9.6875°C 50.5% 4.06V / 3.25V v7 51.6073 / 5.22638 2460 ttn.v3 0.009km -69 12.75 868.3MHz, SF9BW125, 4/5CR
2026-05-05 10:00:12 9.5°C 50.4375% 3.92V / 3.25V v7 51.6073 / 5.22638 2459 ttn.v3 0.009km -73 11 868.1MHz, SF12BW125, 4/5CR
2026-05-05 09:00:11 9.5625°C 50.4375% 4.08V / 3.25V v7 51.6072 / 5.22623 2458 ttn.v3 0.007km -67 12.25 867.1MHz, SF9BW125, 4/5CR
2026-05-05 08:03:05 9.5625°C 50.4375% 4.08V / 3.25V v7 51.6072 / 5.22623 2457 ttn.v3 0.007km -67 12 867.9MHz, SF9BW125, 4/5CR
2026-05-05 07:05:28 9.9375°C 50.5% 4.08V / 3.25V v7 51.6072 / 5.22623 2456 ttn.v3 0.007km -67 9.25 868.5MHz, SF9BW125, 4/5CR
2026-05-05 06:09:30 10.4375°C 50.5625% 3.94V / 3.25V v7 51.6072 / 5.22623 2455 ttn.v3 0.007km -59 9.25 867.7MHz, SF12BW125, 4/5CR
9.78km -121 -21.2 867.7MHz, SF12BW125, 4/5CR
2026-05-05 05:10:53 10.5625°C 50.5625% 4.08V / 3.25V v7 51.6075 / 5.22571 2454 ttn.v3 0.05km -68 12.25 868.3MHz, SF9BW125, 4/5CR
2026-05-05 04:13:29 11°C 50.625% 4.06V / 3.25V v7 51.6075 / 5.22571 2453 ttn.v3 0.05km -69 9 867.5MHz, SF9BW125, 4/5CR
2026-05-05 03:16:05 11.5°C 50.6875% 4.08V / 3.25V v7 51.6075 / 5.22571 2452 ttn.v3 0.05km -65 12.25 867.3MHz, SF9BW125, 4/5CR
2026-05-05 02:19:36 12.4375°C 50.75% 3.94V / 3.25V v7 51.6075 / 5.22571 2451 ttn.v3 0.05km -64 10.75 868.1MHz, SF12BW125, 4/5CR
2026-05-05 01:21:22 13.25°C 50.875% 4.06V / 3.25V v7 51.6068 / 5.22672 2450 ttn.v3 0.057km -65 9.25 868.5MHz, SF9BW125, 4/5CR
2026-05-05 00:23:56 13.625°C 50.9375% 4.08V / 3.25V v7 51.6068 / 5.22672 2449 ttn.v3 0.057km -68 11.25 867.1MHz, SF9BW125, 4/5CR
2026-05-04 23:26:29 14.375°C 51% 4.06V / 3.25V v7 51.6068 / 5.22672 2448 ttn.v3 0.057km -68 13.25 868.3MHz, SF9BW125, 4/5CR
2026-05-04 22:33:31 14.875°C 51.0625% 3.92V / 3.26V v7 51.6068 / 5.22672 2447 ttn.v3 0.057km -65 7.75 867.9MHz, SF12BW125, 4/5CR
2026-05-04 21:32:07 15.9375°C 51.125% 4.08V / 3.26V v7 51.6072 / 5.22638 2446 ttn.v3 0.007km -69 12.5 868.1MHz, SF9BW125, 4/5CR
2026-05-04 20:34:37 17.0625°C 51.25% 4.08V / 3.26V v7 51.6072 / 5.22638 2445 ttn.v3 0.007km -67 13.25 867.7MHz, SF9BW125, 4/5CR
2026-05-04 19:37:06 18.1875°C 51.375% 4.08V / 3.26V v7 51.6072 / 5.22638 2444 ttn.v3 0.007km -67 8.75 867.5MHz, SF9BW125, 4/5CR
2026-05-04 18:40:30 19.25°C 51.5% 3.96V / 3.26V v7 51.6072 / 5.22638 2443 ttn.v3 0.007km -73 7 868.5MHz, SF12BW125, 4/5CR
2026-05-04 17:42:07 20.0625°C 51.5625% 4.08V / 3.26V v7 51.6073 / 5.22641 2442 ttn.v3 0.01km -69 12.75 868.3MHz, SF9BW125, 4/5CR
2026-05-04 16:44:33 19.5°C 51.5625% 4.06V / 3.26V v7 51.6073 / 5.22641 2441 ttn.v3 0.01km -65 12.75 867.3MHz, SF9BW125, 4/5CR
2026-05-04 15:46:59 20.125°C 51.625% 4.08V / 3.26V v7 51.6073 / 5.22641 2440 ttn.v3 0.01km -65 12 868.1MHz, SF9BW125, 4/5CR
2026-05-04 14:50:11 18.375°C 51.4375% 3.98V / 3.26V v7 51.6073 / 5.22641 2439 ttn.v3 0.01km -79 8.25 867.1MHz, SF12BW125, 4/5CR
- -131 -19 867.1MHz, SF12BW125, 4/5CR
2026-05-04 13:52:00 17.25°C 51.3125% 4.06V / 3.26V v7 51.6072 / 5.22647 2438 ttn.v3 0.012km -67 9.5 868.5MHz, SF9BW125, 4/5CR
2026-05-04 12:54:28 17.875°C 51.375% 4.06V / 3.26V v7 51.6072 / 5.22647 2437 ttn.v3 0.012km -67 13.5 868.3MHz, SF9BW125, 4/5CR
2026-05-04 11:56:55 18.8125°C 51.4375% 4.08V / 3.26V v7 51.6072 / 5.22647 2436 ttn.v3 0.012km -63 12.25 867.9MHz, SF9BW125, 4/5CR
2026-05-04 11:00:11 18.3125°C 51.375% 3.96V / 3.26V v7 51.6072 / 5.22647 2435 ttn.v3 0.012km -75 8.25 868.1MHz, SF12BW125, 4/5CR
2026-05-04 10:01:57 15.5625°C 51.125% 4.06V / 3.26V v7 51.6069 / 5.22635 2434 ttn.v3 0.038km -67 8.75 868.5MHz, SF9BW125, 4/5CR
2026-05-04 09:04:28 14.4375°C -5.9375% 4.04V / 3.25V v7 51.6069 / 5.22635 2433 ttn.v3 0.038km -62 11 867.7MHz, SF9BW125, 4/5CR
2026-05-04 08:07:02 13°C 0.875% 4.06V / 3.25V v7 51.6069 / 5.22635 2432 ttn.v3 0.038km -62 9 867.5MHz, SF9BW125, 4/5CR
2026-05-04 07:11:13 11.5625°C 4.25% 3.96V / 3.25V v7 51.6069 / 5.22635 2431 ttn.v3 0.038km -58 10.5 868.3MHz, SF12BW125, 4/5CR
2026-05-04 06:12:25 11°C 4.0625% 4.06V / 3.25V v7 51.6072 / 5.22678 2430 ttn.v3 0.033km -67 13.75 867.3MHz, SF9BW125, 4/5CR
2026-05-04 05:15:02 10.75°C 0.6875% 4.08V / 3.25V v7 51.6072 / 5.22678 2429 ttn.v3 0.033km -65 12.5 867.1MHz, SF9BW125, 4/5CR
2026-05-04 04:17:38 10.75°C -3.8125% 4.08V / 3.25V v7 51.6072 / 5.22678 2428 ttn.v3 0.033km -71 12.75 868.1MHz, SF9BW125, 4/5CR
2026-05-04 03:21:12 11.3125°C 113.75% 3.96V / 3.25V v7 51.6072 / 5.22678 2427 ttn.v3 0.033km -57 9.25 867.9MHz, SF12BW125, 4/5CR
2026-05-04 02:22:58 11.5625°C 104.562% 4.08V / 3.25V v7 No position 2426 ttn.v3 - -63 10.25 868.5MHz, SF9BW125, 4/5CR
2026-05-04 01:25:34 10.8125°C 94.6875% 4.08V / 3.25V v7 No position 2425 ttn.v3 - -67 12.75 867.7MHz, SF9BW125, 4/5CR
2026-05-04 00:28:10 11.5625°C 84.1875% 4.08V / 3.25V v7 No position 2424 ttn.v3 - -67 9 867.5MHz, SF9BW125, 4/5CR
2026-05-03 22:34:04 12.9375°C 66.0625% 4.1V / 3.25V v7 51.6071 / 5.22641 2422 ttn.v3 0.017km -67 12.25 868.1MHz, SF9BW125, 4/5CR
2026-05-03 21:36:38 13.3125°C 50.875% 4.08V / 3.25V v7 51.6071 / 5.22641 2421 ttn.v3 0.017km -65 13.25 867.3MHz, SF9BW125, 4/5CR
2026-05-03 20:39:11 13.8125°C 50.9375% 4.08V / 3.25V v7 51.6071 / 5.22641 2420 ttn.v3 0.017km -68 9.25 868.5MHz, SF9BW125, 4/5CR
2026-05-03 19:43:42 14.4375°C 51% 3.98V / 3.26V v7 51.6071 / 5.22641 2419 ttn.v3 0.017km -67 11.75 867.1MHz, SF12BW125, 4/5CR
2026-05-03 18:44:30 16.375°C 51.1875% 4.1V / 3.26V v7 51.6074 / 5.22595 2418 ttn.v3 0.03km -67 12.25 868.3MHz, SF9BW125, 4/5CR
2026-05-03 17:47:00 15.9375°C 51.125% 4.08V / 3.26V v7 51.6074 / 5.22595 2417 ttn.v3 0.03km -68 12 868.1MHz, SF9BW125, 4/5CR
2026-05-03 16:49:31 16.5°C 51.1875% 4.08V / 3.26V v7 51.6074 / 5.22595 2416 ttn.v3 0.03km -69 12 867.9MHz, SF9BW125, 4/5CR
2026-05-03 15:52:41 15.9375°C 51.125% 3.98V / 3.26V v7 51.6074 / 5.22595 2415 ttn.v3 0.03km -66 6.5 868.5MHz, SF12BW125, 4/5CR
2026-05-03 14:54:38 15.6875°C 51.125% 4.1V / 3.26V v7 51.6072 / 5.22614 2414 ttn.v3 0.012km -69 12.75 868.3MHz, SF9BW125, 4/5CR
2026-05-03 13:57:08 16.0625°C 51.1875% 4.08V / 3.26V v7 51.6072 / 5.22614 2413 ttn.v3 0.012km -68 12 867.7MHz, SF9BW125, 4/5CR
2026-05-03 12:59:38 18°C 51.375% 4.1V / 3.26V v7 51.6072 / 5.22614 2412 ttn.v3 0.012km -67 8.5 867.5MHz, SF9BW125, 4/5CR
2026-05-03 12:02:41 17.8125°C 51.375% 4V / 3.26V v7 51.6072 / 5.22614 2411 ttn.v3 0.012km -74 10 868.1MHz, SF12BW125, 4/5CR
2026-05-03 11:04:38 18.125°C 51.375% 4.08V / 3.26V v7 51.6073 / 5.22641 2410 ttn.v3 0.01km -65 12.25 867.3MHz, SF9BW125, 4/5CR
2026-05-03 10:07:08 17.0625°C 51.25% 4.08V / 3.26V v7 51.6073 / 5.22641 2409 ttn.v3 0.01km -69 13.25 867.1MHz, SF9BW125, 4/5CR
2026-05-03 09:09:37 16.75°C 64.125% 4.08V / 3.26V v7 51.6073 / 5.22641 2408 ttn.v3 0.01km -69 9 868.5MHz, SF9BW125, 4/5CR
2026-05-03 08:13:00 14.375°C 117.188% 3.98V / 3.26V v7 51.6073 / 5.22641 2407 ttn.v3 0.01km -79 7 867.9MHz, SF12BW125, 4/5CR
2026-05-03 07:14:48 13°C 116.438% 4.1V / 3.25V v7 51.6071 / 5.22672 2406 ttn.v3 0.032km -65 11.75 868.3MHz, SF9BW125, 4/5CR
2026-05-03 06:17:23 12.25°C 113.125% 4.1V / 3.25V v7 51.6071 / 5.22672 2405 ttn.v3 0.032km -69 12.75 867.7MHz, SF9BW125, 4/5CR
2026-05-03 05:19:58 12.875°C 107.312% 4.1V / 3.25V v7 51.6071 / 5.22672 2404 ttn.v3 0.032km -63 9.75 867.5MHz, SF9BW125, 4/5CR
2026-05-03 04:23:11 13.5°C 102.875% 3.98V / 3.25V v7 51.6071 / 5.22672 2403 ttn.v3 0.032km -79 10.5 868.1MHz, SF12BW125, 4/5CR
2026-05-03 03:25:10 13.3125°C 93.25% 4.1V / 3.25V v7 51.6072 / 5.22623 2402 ttn.v3 0.007km -67 9.5 868.5MHz, SF9BW125, 4/5CR
2026-05-03 02:27:44 13.8125°C 84.375% 4.1V / 3.25V v7 51.6072 / 5.22623 2401 ttn.v3 0.007km -62 11.25 867.3MHz, SF9BW125, 4/5CR
2026-05-03 01:30:17 14.125°C 73.1875% 4.1V / 3.25V v7 51.6072 / 5.22623 2400 ttn.v3 0.007km -73 12.25 868.3MHz, SF9BW125, 4/5CR
2026-05-03 00:33:41 14.125°C 50.9375% 3.98V / 3.26V v7 51.6072 / 5.22623 2399 ttn.v3 0.007km -65 10 867.1MHz, SF12BW125, 4/5CR
9.78km -122 -19.8 867.1MHz, SF12BW125, 4/5CR
2026-05-02 23:35:29 14.6875°C 51% 4.1V / 3.26V v7 51.6072 / 5.22641 2398 ttn.v3 0.008km -68 11.5 868.1MHz, SF9BW125, 4/5CR
2026-05-02 22:37:59 17.1875°C 116.438% 4.08V / 3.26V v7 51.6072 / 5.22641 2397 ttn.v3 0.008km -69 9 868.5MHz, SF9BW125, 4/5CR
2026-05-02 21:40:28 18.3125°C 90.4375% 4.1V / 3.26V v7 51.6072 / 5.22641 2396 ttn.v3 0.008km -68 13 867.9MHz, SF9BW125, 4/5CR
2026-05-02 20:44:07 19.875°C 25.875% 4V / 3.27V v7 51.6072 / 5.22641 2395 ttn.v3 0.008km -73 8.75 868.3MHz, SF12BW125, 4/5CR
2026-05-02 19:45:30 21.125°C 67.375% 4.1V / 3.26V v7 51.6072 / 5.22617 2394 ttn.v3 0.01km -68 12 868.1MHz, SF9BW125, 4/5CR
2026-05-02 18:47:52 23.5625°C 88.375% 4.08V / 3.27V v7 51.6072 / 5.22617 2393 ttn.v3 0.01km -65 12.5 867.7MHz, SF9BW125, 4/5CR
2026-05-02 17:50:14 23°C 105.438% 4.08V / 3.27V v7 51.6072 / 5.22617 2392 ttn.v3 0.01km -68 9 868.5MHz, SF9BW125, 4/5CR
2026-05-02 16:54:12 25.25°C 5.3125% 3.98V / 3.28V v7 51.6072 / 5.22617 2391 ttn.v3 0.01km -73 8.25 868.3MHz, SF12BW125, 4/5CR
2026-05-02 15:55:02 29.4375°C 49.5625% 4.08V / 3.28V v7 51.6072 / 5.22641 2390 ttn.v3 0.008km -68 9.5 867.5MHz, SF9BW125, 4/5CR
2026-05-02 14:57:17 26.875°C 65% 4.08V / 3.27V v7 51.6072 / 5.22641 2389 ttn.v3 0.008km -69 12.5 867.3MHz, SF9BW125, 4/5CR
2026-05-02 13:59:32 28.1875°C 54.375% 4.08V / 3.28V v7 51.6072 / 5.22641 2388 ttn.v3 0.008km -68 12 868.1MHz, SF9BW125, 4/5CR
2026-05-02 13:02:35 29.25°C 48.5625% 3.98V / 3.28V v7 51.6072 / 5.22641 2387 ttn.v3 0.008km -73 10.75 867.1MHz, SF12BW125, 4/5CR
9.775km -122 -21.8 867.1MHz, SF12BW125, 4/5CR
2026-05-02 12:04:04 25.6875°C 75.875% 4.06V / 3.27V v7 51.6071 / 5.22635 2386 ttn.v3 0.016km -65 9.25 868.5MHz, SF9BW125, 4/5CR
2026-05-02 11:06:22 23.6875°C 76.5625% 4.08V / 3.27V v7 51.6071 / 5.22635 2385 ttn.v3 0.016km -66 11.5 867.9MHz, SF9BW125, 4/5CR
2026-05-02 10:08:44 19.875°C 101.375% 4.08V / 3.26V v7 51.6071 / 5.22635 2384 ttn.v3 0.016km -67 12.75 867.7MHz, SF9BW125, 4/5CR
2026-05-02 09:12:05 14.0625°C 96.6875% 4V / 3.26V v7 51.6071 / 5.22635 2383 ttn.v3 0.016km -66 9.25 868.3MHz, SF12BW125, 4/5CR
2026-05-02 08:13:53 13.3125°C 84% 4.1V / 3.25V v7 51.6072 / 5.22653 2382 ttn.v3 0.016km -65 12 868.1MHz, SF9BW125, 4/5CR
2026-05-02 07:16:28 11.1875°C 25.5% 4.1V / 3.25V v7 51.6072 / 5.22653 2381 ttn.v3 0.016km -67 8.5 867.5MHz, SF9BW125, 4/5CR
2026-05-02 06:19:06 7.75°C 50.25% 4.1V / 3.24V v7 51.6072 / 5.22653 2380 ttn.v3 0.016km -67 9 868.5MHz, SF9BW125, 4/5CR
2026-05-02 05:23:42 7.5°C 100.812% 3.98V / 3.25V v7 51.6072 / 5.22653 2379 ttn.v3 0.016km -71 10.75 867.3MHz, SF12BW125, 4/5CR
2026-05-02 04:24:39 7.875°C -3.3125% 4.12V / 3.24V v7 51.6072 / 5.22632 2378 ttn.v3 0.004km -67 12.5 868.3MHz, SF9BW125, 4/5CR
2026-05-02 03:27:18 8.5°C 111.125% 4.12V / 3.25V v7 51.6072 / 5.22632 2377 ttn.v3 0.004km -63 11.5 867.1MHz, SF9BW125, 4/5CR
2026-05-02 02:29:56 9°C 109.625% 4.12V / 3.24V v7 51.6072 / 5.22632 2376 ttn.v3 0.004km -64 9.75 867.9MHz, SF9BW125, 4/5CR
2026-05-02 01:33:11 9.875°C 1% 4V / 3.25V v7 51.6072 / 5.22632 2375 ttn.v3 0.004km -71 9.75 868.1MHz, SF12BW125, 4/5CR
2026-05-02 00:35:15 10.625°C 107.688% 4.12V / 3.25V v7 51.6072 / 5.22638 2374 ttn.v3 0.007km -65 9.5 868.5MHz, SF9BW125, 4/5CR
2026-05-01 23:37:51 11.875°C -0.1875% 4.12V / 3.25V v7 51.6072 / 5.22638 2373 ttn.v3 0.007km -63 12.25 867.7MHz, SF9BW125, 4/5CR
2026-05-01 22:40:25 13.25°C 50.5% 4.12V / 3.25V v7 51.6072 / 5.22638 2372 ttn.v3 0.007km -65 12.75 868.3MHz, SF9BW125, 4/5CR
2026-05-01 21:43:41 15.4375°C 93.6875% 4.02V / 3.26V v7 51.6072 / 5.22638 2371 ttn.v3 0.007km -73 8.5 867.5MHz, SF12BW125, 4/5CR
2026-05-01 20:45:33 18.5°C 74.5% 4.1V / 3.26V v7 51.6073 / 5.22626 2370 ttn.v3 0.008km -67 11.5 868.1MHz, SF9BW125, 4/5CR
2026-05-01 19:47:58 21.875°C 39.5% 4.1V / 3.27V v7 51.6073 / 5.22626 2369 ttn.v3 0.008km -69 8.75 868.5MHz, SF9BW125, 4/5CR
2026-05-01 18:50:21 23.3125°C 32% 4.1V / 3.27V v7 51.6073 / 5.22626 2368 ttn.v3 0.008km -63 11.75 867.3MHz, SF9BW125, 4/5CR
2026-05-01 17:53:35 24.0625°C 30.375% 4.02V / 3.27V v7 51.6073 / 5.22626 2367 ttn.v3 0.008km -67 8.75 868.3MHz, SF12BW125, 4/5CR
2026-05-01 16:55:10 25.1875°C 27.625% 4.08V / 3.27V v7 51.607 / 5.22668 2366 ttn.v3 0.037km -68 12.25 868.1MHz, SF9BW125, 4/5CR
2026-05-01 15:57:26 30.375°C 21.0625% 4.06V / 3.28V v7 51.607 / 5.22668 2365 ttn.v3 0.037km -67 12.25 867.1MHz, SF9BW125, 4/5CR
2026-05-01 14:59:34 32.75°C 19.5625% 4.08V / 3.28V v7 51.607 / 5.22668 2364 ttn.v3 0.037km -67 12.5 867.9MHz, SF9BW125, 4/5CR
2026-05-01 14:02:42 30.625°C 21.3125% 4V / 3.28V v7 51.607 / 5.22668 2363 ttn.v3 0.037km -73 9.25 868.5MHz, SF12BW125, 4/5CR
2026-05-01 13:04:02 28.0625°C 21.875% 4.06V / 3.28V v7 51.6071 / 5.22638 2362 ttn.v3 0.016km -67 12.5 867.7MHz, SF9BW125, 4/5CR
2026-05-01 11:08:38 25.375°C 27.4375% 4.06V / 3.27V v7 51.6071 / 5.22638 2361 ttn.v3 0.016km -63 11.75 868.3MHz, SF9BW125, 4/5CR
2026-05-01 10:13:42 19.375°C 39.0625% 3.96V / 3.26V v7 51.6071 / 5.22638 2360 ttn.v3 0.016km -63 7 867.5MHz, SF12BW125, 4/5CR
2026-05-01 09:13:49 17.5625°C 44.875% 4.08V / 3.26V v7 51.6072 / 5.22662 2359 ttn.v3 0.022km -73 12 868.1MHz, SF9BW125, 4/5CR
2026-05-01 08:16:23 10.6875°C 82.875% 4.1V / 3.25V v7 51.6072 / 5.22662 2358 ttn.v3 0.022km -65 13 867.3MHz, SF9BW125, 4/5CR
2026-05-01 07:19:01 7.8125°C 53% 4.1V / 3.24V v7 51.6072 / 5.22662 2357 ttn.v3 0.022km -71 12.25 867.1MHz, SF9BW125, 4/5CR
2026-05-01 06:23:11 5.75°C 55.125% 3.96V / 3.24V v7 51.6072 / 5.22662 2356 ttn.v3 0.022km -63 9 868.5MHz, SF12BW125, 4/5CR
2026-05-01 05:24:35 5.875°C 89.3125% 4.12V / 3.24V v7 51.6073 / 5.22562 2355 ttn.v3 0.048km -69 12.75 868.3MHz, SF9BW125, 4/5CR
2026-05-01 04:27:16 6.875°C 112.188% 4.12V / 3.24V v7 51.6073 / 5.22562 2354 ttn.v3 0.048km -68 13 867.9MHz, SF9BW125, 4/5CR
2026-05-01 03:29:56 8°C 99.625% 4.12V / 3.24V v7 51.6073 / 5.22562 2353 ttn.v3 0.048km -66 12.5 868.1MHz, SF9BW125, 4/5CR
2026-05-01 02:33:29 8.375°C 98.8125% 3.98V / 3.25V v7 51.6073 / 5.22562 2352 ttn.v3 0.048km -65 9.5 867.7MHz, SF12BW125, 4/5CR
9.787km -121 -19.5 867.7MHz, SF12BW125, 4/5CR
2026-05-01 01:35:21 9.875°C 77.6875% 4.12V / 3.25V v7 51.6072 / 5.22635 2351 ttn.v3 0.005km -67 9 868.5MHz, SF9BW125, 4/5CR
2026-05-01 00:37:58 11.0625°C 63.875% 4.1V / 3.25V v7 51.6072 / 5.22635 2350 ttn.v3 0.005km -73 12.75 868.3MHz, SF9BW125, 4/5CR
2026-04-30 23:40:34 12.125°C 56.5% 4.1V / 3.25V v7 51.6072 / 5.22635 2349 ttn.v3 0.005km -67 9 867.5MHz, SF9BW125, 4/5CR
2026-04-30 22:44:11 14.375°C 45.9375% 4V / 3.26V v7 51.6072 / 5.22635 2348 ttn.v3 0.005km -69 9.75 868.1MHz, SF12BW125, 4/5CR
9.776km -121 -19.2 868.1MHz, SF12BW125, 4/5CR
2026-04-30 21:45:48 15.9375°C 39.375% 4.08V / 3.26V v7 51.6072 / 5.22632 2347 ttn.v3 0.004km -68 9.25 868.5MHz, SF9BW125, 4/5CR
2026-04-30 20:48:19 17.25°C 36.6875% 4.08V / 3.26V v7 51.6072 / 5.22632 2346 ttn.v3 0.004km -65 11.75 867.3MHz, SF9BW125, 4/5CR
2026-04-30 19:50:47 19.0625°C 32.125% 4.08V / 3.26V v7 51.6072 / 5.22632 2345 ttn.v3 0.004km -68 11.5 867.1MHz, SF9BW125, 4/5CR
2026-04-30 18:54:12 20.25°C 28.9375% 4V / 3.27V v7 51.6072 / 5.22632 2344 ttn.v3 0.004km -68 10 868.3MHz, SF12BW125, 4/5CR
2026-04-30 17:55:47 20.9375°C 25.5% 4.08V / 3.26V v7 51.6072 / 5.22626 2343 ttn.v3 0.005km -69 12.25 867.9MHz, SF9BW125, 4/5CR
2026-04-30 16:58:12 21.625°C 23.0625% 4.1V / 3.27V v7 51.6072 / 5.22626 2342 ttn.v3 0.005km -67 12.75 867.7MHz, SF9BW125, 4/5CR
2026-04-30 16:00:34 25.25°C 20.125% 4.08V / 3.27V v7 51.6072 / 5.22626 2341 ttn.v3 0.005km -68 12.75 868.1MHz, SF9BW125, 4/5CR
2026-04-30 15:03:41 26.3125°C 19.6875% 4V / 3.28V v7 51.6072 / 5.22626 2340 ttn.v3 0.005km -67 7.75 867.5MHz, SF12BW125, 4/5CR
2026-04-30 14:05:15 24.875°C 21.25% 4.08V / 3.27V v7 51.6072 / 5.22629 2339 ttn.v3 0.004km -63 9.75 868.5MHz, SF9BW125, 4/5CR
2026-04-30 13:07:32 25.6875°C 20.8125% 4.06V / 3.27V v7 51.6072 / 5.22629 2338 ttn.v3 0.004km -67 13.75 867.3MHz, SF9BW125, 4/5CR
2026-04-30 12:09:51 23.5°C 22.875% 4.04V / 3.27V v7 51.6072 / 5.22629 2337 ttn.v3 0.004km -69 12.75 867.1MHz, SF9BW125, 4/5CR
2026-04-30 11:14:36 22°C 27.375% 3.98V / 3.27V v7 51.6072 / 5.22629 2336 ttn.v3 0.004km -65 9 868.3MHz, SF12BW125, 4/5CR
2026-04-30 10:14:57 16.375°C 36.6875% 4.08V / 3.26V v7 51.6071 / 5.22644 2335 ttn.v3 0.018km -71 12.5 868.1MHz, SF9BW125, 4/5CR
2026-04-30 09:17:28 14°C 41.875% 4.08V / 3.25V v7 51.6071 / 5.22644 2334 ttn.v3 0.018km -69 13 867.9MHz, SF9BW125, 4/5CR
2026-04-30 08:20:04 10.0625°C 54.125% 4.1V / 3.25V v7 51.6071 / 5.22644 2333 ttn.v3 0.018km -67 9 868.5MHz, SF9BW125, 4/5CR
2026-04-30 07:24:39 8.6875°C 58.625% 3.94V / 3.25V v7 51.6071 / 5.22644 2332 ttn.v3 0.018km -62 9.25 867.7MHz, SF12BW125, 4/5CR
2026-04-30 06:25:36 7.0625°C 70.8125% 4.1V / 3.24V v7 51.6072 / 5.22632 2331 ttn.v3 0.004km -67 12.75 868.3MHz, SF9BW125, 4/5CR
2026-04-30 05:28:17 7.5°C 70.1875% 4.1V / 3.24V v7 51.6072 / 5.22632 2330 ttn.v3 0.004km -65 12 868.1MHz, SF9BW125, 4/5CR
2026-04-30 04:30:56 8.4375°C 63.5625% 4.1V / 3.24V v7 51.6072 / 5.22632 2329 ttn.v3 0.004km -65 9.25 867.5MHz, SF9BW125, 4/5CR
2026-04-30 03:34:29 8.875°C 61.5625% 3.98V / 3.25V v7 51.6072 / 5.22632 2328 ttn.v3 0.004km -65 8.25 868.5MHz, SF12BW125, 4/5CR
2026-04-30 02:36:20 9.6875°C 57.0625% 4.1V / 3.25V v7 51.6071 / 5.22662 2327 ttn.v3 0.027km -73 12.5 868.3MHz, SF9BW125, 4/5CR
2026-04-30 01:38:58 10.625°C 53.5625% 4.08V / 3.25V v7 51.6071 / 5.22662 2326 ttn.v3 0.027km -67 12.5 867.3MHz, SF9BW125, 4/5CR
2026-04-30 00:41:34 11.5°C 50.875% 4.1V / 3.25V v7 51.6071 / 5.22662 2325 ttn.v3 0.027km -66 12.25 868.1MHz, SF9BW125, 4/5CR
2026-04-29 23:47:05 12.25°C 48.625% 3.96V / 3.25V v7 51.6071 / 5.22662 2324 ttn.v3 0.027km -64 7.75 868.5MHz, SF12BW125, 4/5CR
2026-04-29 22:47:07 13.8125°C 44.4375% 4.08V / 3.25V v7 51.6072 / 5.22632 2323 ttn.v3 0.004km -69 12.5 867.1MHz, SF9BW125, 4/5CR
2026-04-29 20:52:22 15.0625°C 41.3125% 4.1V / 3.26V v7 51.6072 / 5.22632 2322 ttn.v3 0.004km -71 12.5 868.3MHz, SF9BW125, 4/5CR
2026-04-29 19:59:12 16.625°C 36.3125% 3.98V / 3.26V v7 51.6072 / 5.22632 2321 ttn.v3 0.004km -75 9.75 867.9MHz, SF12BW125, 4/5CR
2026-04-29 18:57:56 17.875°C 32.5625% 4.1V / 3.26V v7 51.6072 / 5.22641 2320 ttn.v3 0.008km -71 12.25 868.1MHz, SF9BW125, 4/5CR
2026-04-29 18:00:24 18.6875°C 35.125% 4.1V / 3.26V v7 51.6072 / 5.22641 2319 ttn.v3 0.008km -66 11.75 867.7MHz, SF9BW125, 4/5CR
2026-04-29 17:02:52 19.3125°C 34.8125% 4.1V / 3.26V v7 51.6072 / 5.22641 2318 ttn.v3 0.008km -68 9.5 867.5MHz, SF9BW125, 4/5CR
2026-04-29 16:06:11 22.125°C 30.125% 4V / 3.27V v7 51.6072 / 5.22641 2317 ttn.v3 0.008km -72 7.75 868.5MHz, SF12BW125, 4/5CR
2026-04-29 15:07:46 23.4375°C 28.125% 4.1V / 3.27V v7 51.6072 / 5.2262 2316 ttn.v3 0.008km -68 13 867.3MHz, SF9BW125, 4/5CR
2026-04-29 14:10:07 23.1875°C 27.125% 4.08V / 3.27V v7 51.6072 / 5.2262 2315 ttn.v3 0.008km -73 12.5 867.1MHz, SF9BW125, 4/5CR

Message count: 200
Node count: 1

Messages per node

Number of messages in list aboveNodes
200

Statistics per gateway

GatewayNumber of messagesNumber of nodesNodes
2001 (0.008km)
61 (9.776km)
11

Filter by dataset